Latest Weather Observations for Redesdale

IDV60801

Issued at 2:42 pm EST Saturday 2 July 2022 (issued every 10 minutes, with the page automatically refreshed every 10 minutes)

About weather observations | Map of weather stations | Latest weather observations for VIC | Other Formats
Station Details ID: 088051 Name: REDESDALE Lat: -37.02 Lon: 144.52 Height: 290.0 m
Data from the previous 72 hours. | See also: Recent months at Redesdale
Date/Time
EST
Temp
°C
App
Temp
°C
Dew
Point
°C
Rel
Hum
%
Delta-T
°C
Wind Press
QNH
hPa
Press
MSL
hPa
Rain since
9am
mm
Dir  Spd
km/h
Gust
km/h
Spd
kts
Gust
kts
02/02:30pm 10.8 4.7 4.9 67 2.7 S 26 37 14 20 - - 0.0
02/02:00pm 11.5 6.2 5.2 65 2.9 S 22 37 12 20 - - 0.0
02/01:30pm 11.7 6.9 4.9 63 3.2 S 19 26 10 14 - - 0.0
02/01:00pm 11.6 6.7 5.3 65 2.9 S 20 30 11 16 - - 0.0
02/12:30pm 11.1 5.8 4.8 65 2.9 S 22 32 12 17 - - 0.0
02/12:00pm 11.0 6.8 5.5 69 2.6 S 17 22 9 12 - - 0.0
02/11:30am 10.8 6.2 6.4 74 2.1 S 20 28 11 15 - - 0.0
02/11:00am 10.1 5.6 6.1 76 1.9 SSE 19 28 10 15 - - 0.0
02/10:30am 9.2 5.8 5.9 80 1.5 S 13 26 7 14 - - 0.0
02/10:00am 8.1 6.6 5.0 81 1.4 SSE 2 4 1 2 - - 0.0
02/09:30am 8.1 6.6 5.2 82 1.3 S 2 4 1 2 - - 0.0
02/09:00am 6.3 5.2 5.1 92 0.5 CALM 0 0 0 0 - - 0.2
02/08:30am 4.1 2.6 3.2 94 0.4 CALM 0 0 0 0 - - 0.2
02/08:00am 4.1 1.8 2.8 91 0.5 S 4 6 2 3 - - 0.2
02/07:30am 4.1 1.2 2.5 89 0.7 SSW 7 11 4 6 - - 0.2
02/07:00am 4.7 2.1 3.0 89 0.7 SSW 6 11 3 6 - - 0.2
02/06:30am 5.5 2.0 3.5 87 0.9 SSW 11 20 6 11 - - 0.2
02/06:00am 6.2 0.4 4.2 87 0.9 S 24 32 13 17 - - 0.2
02/05:30am 6.3 0.1 4.3 87 0.9 S 26 35 14 19 - - 0.2
02/05:00am 6.0 0.9 4.3 89 0.7 S 20 32 11 17 - - 0.2
02/04:30am 5.3 1.1 4.0 91 0.6 SSW 15 20 8 11 - - 0.2
02/04:00am 4.0 1.2 3.1 94 0.4 SSW 7 11 4 6 - - 0.0
02/03:30am 3.6 1.4 3.2 97 0.2 SSW 4 6 2 3 - - 0.0
02/03:00am 3.7 1.1 3.0 95 0.3 SSW 6 9 3 5 - - 0.0
02/02:30am 4.7 2.2 3.5 92 0.5 SSW 6 9 3 5 - - 0.0
02/02:00am 5.1 2.4 3.8 91 0.6 S 7 9 4 5 - - 0.0
02/01:30am 5.2 2.1 3.7 90 0.6 S 9 15 5 8 - - 0.0
02/01:00am 5.9 3.0 4.4 90 0.7 SSE 9 20 5 11 - - 0.0
02/12:30am 5.8 2.5 4.4 91 0.6 S 11 15 6 8 - - 0.0
02/12:00am 5.3 2.3 4.3 93 0.4 SSE 9 15 5 8 - - 0.0
 
Date/Time
EST
Temp
°C
App
Temp
°C
Dew
Point
°C
Rel
Hum
%
Delta-T
°C
Wind Press
QNH
hPa
Press
MSL
hPa
Rain since
9am
mm
Dir  Spd
km/h
Gust
km/h
Spd
kts
Gust
kts
01/11:30pm 5.6 3.0 4.1 90 0.6 SSE 7 9 4 5 - - 0.0
01/11:00pm 6.5 3.2 4.7 88 0.8 SSE 11 22 6 12 - - 0.0
01/10:30pm 5.9 3.0 4.4 90 0.7 SSE 9 15 5 8 - - 0.0
01/10:00pm 6.4 2.7 4.7 89 0.8 SSE 13 17 7 9 - - 0.0
01/09:30pm 6.9 3.2 4.7 86 1.0 S 13 17 7 9 - - 0.0
01/09:00pm 6.9 3.3 4.9 87 0.9 S 13 19 7 10 - - 0.0
01/08:30pm 7.0 3.7 4.8 86 1.0 SSE 11 17 6 9 - - 0.0
01/08:00pm 7.6 3.3 5.2 85 1.1 S 17 24 9 13 - - 0.0
01/07:30pm 6.5 4.0 4.7 88 0.8 S 7 13 4 7 - - 0.0
01/07:00pm 6.7 3.8 4.9 88 0.8 S 9 15 5 8 - - 0.0
01/06:30pm 6.3 3.7 4.3 87 0.9 S 7 11 4 6 - - 0.0
01/06:00pm 6.7 3.8 4.7 87 0.9 SSW 9 13 5 7 - - 0.0
01/05:30pm 7.7 4.9 5.0 83 1.2 SSW 9 13 5 7 - - 0.0
01/05:00pm 9.4 5.4 5.0 74 2.0 S 15 24 8 13 - - 0.0
01/04:30pm 10.4 6.1 5.2 70 2.4 S 17 26 9 14 - - 0.0
01/04:00pm 11.3 7.9 6.0 70 2.5 S 13 20 7 11 - - 0.0
01/03:30pm 12.0 7.5 5.9 66 2.9 SSE 19 28 10 15 - - 0.0
01/03:00pm 12.2 7.4 5.8 65 3.0 S 20 32 11 17 - - 0.0
01/02:30pm 12.5 8.0 6.1 65 3.1 S 19 30 10 16 - - 0.0
01/02:00pm 12.7 8.9 5.6 62 3.4 SSE 15 24 8 13 - - 0.0
01/01:30pm 13.2 8.8 6.5 64 3.3 SSE 19 26 10 14 - - 0.0
01/01:00pm 11.7 7.6 6.2 69 2.6 SSE 17 24 9 13 - - 0.0
01/12:30pm 12.9 8.4 6.3 64 3.2 SSE 19 32 10 17 - - 0.0
01/12:00pm 12.9 8.5 6.7 66 3.0 SSE 19 30 10 16 - - 0.0
01/11:30am 12.9 8.3 6.7 66 3.0 SSE 20 37 11 20 - - 0.0
01/11:00am 11.7 6.3 6.2 69 2.6 SSE 24 39 13 21 - - 0.0
01/10:30am 11.6 7.0 6.3 70 2.5 SSE 20 35 11 19 - - 0.0
01/10:00am 10.8 5.7 6.2 73 2.2 S 22 35 12 19 - - 0.0
01/09:30am 10.0 5.5 6.2 77 1.8 SSE 19 30 10 16 - - 0.0
01/09:00am 8.9 4.8 6.2 83 1.3 S 17 22 9 12 - - 0.0
01/08:30am 7.1 3.2 5.4 89 0.8 S 15 20 8 11 - - 0.0
01/08:00am 5.8 1.8 4.9 94 0.4 S 15 20 8 11 - - 0.0
01/07:30am 5.3 1.2 4.6 95 0.3 SSW 15 19 8 10 - - 0.0
01/07:00am 4.9 1.5 4.2 95 0.3 SSW 11 15 6 8 - - 0.0
01/06:30am 5.0 1.3 4.3 95 0.3 SSW 13 17 7 9 - - 0.0
01/06:00am 4.4 1.4 4.1 98 0.1 SSW 9 13 5 7 - - 0.0
01/05:30am 4.6 1.6 4.2 97 0.2 SSW 9 13 5 7 - - 0.0
01/05:00am 4.8 1.4 4.1 95 0.3 SSW 11 15 6 8 - - 0.0
01/04:30am 4.9 2.0 4.8 99 0.0 SSW 9 11 5 6 - - 0.0
01/04:00am 4.4 1.8 4.3 99 0.0 SW 7 11 4 6 - - 0.0
01/03:30am 4.4 2.4 4.3 99 0.0 SSW 4 6 2 3 - - 0.0
01/03:00am 5.2 3.7 5.1 99 0.0 S 2 6 1 3 - - 0.0
01/02:30am 5.6 3.3 5.0 96 0.3 S 6 11 3 6 - - 0.0
01/02:00am 6.4 2.7 6.1 98 0.1 SSW 15 20 8 11 - - 0.0
01/01:30am 4.2 1.1 3.5 95 0.3 SSW 9 13 5 7 - - 0.0
01/01:00am 5.8 2.1 4.6 92 0.5 S 13 19 7 10 - - 0.0
01/12:30am 5.1 1.3 4.1 93 0.4 SSW 13 15 7 8 - - 0.0
01/12:00am 5.4 1.2 3.9 90 0.6 S 15 19 8 10 - - 0.0
 
Date/Time
EST
Temp
°C
App
Temp
°C
Dew
Point
°C
Rel
Hum
%
Delta-T
°C
Wind Press
QNH
hPa
Press
MSL
hPa
Rain since
9am
mm
Dir  Spd
km/h
Gust
km/h
Spd
kts
Gust
kts
30/11:30pm 5.4 1.6 3.7 89 0.7 S 13 17 7 9 - - 0.0
30/11:00pm 5.7 1.9 3.7 87 0.9 S 13 19 7 10 - - 0.0
30/10:30pm 5.3 1.0 3.5 88 0.8 S 15 19 8 10 - - 0.0
30/10:00pm 6.1 1.9 3.9 86 0.9 S 15 20 8 11 - - 0.0
30/09:30pm 5.6 1.4 3.6 87 0.9 SSW 15 20 8 11 - - 0.0
30/09:00pm 4.9 0.5 2.9 87 0.8 SSW 15 17 8 9 - - 0.0
30/08:30pm 3.9 0.1 1.9 87 0.8 SSW 11 15 6 8 - - 0.0
30/08:00pm 3.9 0.9 1.9 87 0.8 SSW 7 9 4 5 - - 0.0
30/07:30pm 4.5 1.6 2.7 88 0.7 S 7 11 4 6 - - 0.0
30/07:00pm 5.8 2.7 3.6 86 0.9 S 9 11 5 6 - - 0.0
30/06:30pm 6.3 3.6 3.8 84 1.1 S 7 11 4 6 - - 0.0
30/06:00pm 7.7 5.3 4.1 78 1.6 SSE 6 6 3 3 - - 0.0
30/05:30pm 8.3 6.1 5.4 82 1.3 SE 6 7 3 4 - - 0.0
30/05:00pm 10.3 8.4 4.9 69 2.5 E 4 6 2 3 - - 0.0
30/04:30pm 11.7 9.5 5.3 65 3.0 E 6 7 3 4 - - 0.0
30/04:00pm 11.6 9.6 4.3 61 3.3 ESE 4 6 2 3 - - 0.0
30/03:30pm 13.4 11.2 5.3 58 3.8 ESE 6 11 3 6 - - 0.0
30/03:00pm 13.3 11.1 5.2 58 3.8 NE 6 9 3 5 - - 0.0
30/02:30pm 13.5 12.2 5.9 60 3.7 E 2 6 1 3 - - 0.0
30/02:00pm 10.9 8.8 5.9 71 2.4 ESE 6 11 3 6 - - 0.0
30/01:30pm 11.8 9.6 6.1 68 2.7 SE 7 13 4 7 - - 0.0
30/01:00pm 11.2 9.5 6.1 71 2.4 SE 4 7 2 4 - - 0.0
30/12:30pm 11.0 8.8 6.4 73 2.2 SSE 7 11 4 6 - - 0.0
30/12:00pm 12.8 11.0 7.0 68 2.8 ENE 6 11 3 6 - - 0.0
30/11:30am 12.2 10.7 6.9 70 2.6 SSE 4 7 2 4 - - 0.0
30/11:00am 11.4 9.8 7.9 79 1.7 ESE 6 9 3 5 - - 0.0
30/10:30am 11.0 9.4 8.2 83 1.4 ESE 6 9 3 5 - - 0.0
30/10:00am 9.2 7.8 8.7 97 0.2 SSW 6 9 3 5 - - 0.0
30/09:30am 6.6 5.0 6.5 99 0.0 SSW 4 6 2 3 - - 0.0
30/09:00am 3.6 0.9 3.5 99 0.0 SSW 7 11 4 6 - - 0.0
30/08:30am 2.4 -1.3 2.3 99 0.0 SSW 11 15 6 8 - - 0.0
30/08:00am 1.7 -1.7 1.6 99 0.0 SSW 9 11 5 6 - - 0.0
30/07:30am 1.9 -1.5 1.8 99 0.0 S 9 13 5 7 - - 0.0
30/07:00am 1.2 -2.3 1.1 99 0.0 SSW 9 11 5 6 - - 0.0
30/06:30am 1.0 -2.9 0.9 99 0.0 SSW 11 13 6 7 - - 0.0
30/06:00am 0.2 -3.5 0.1 99 0.0 SSW 9 11 5 6 - - 0.0
30/05:30am 0.1 -3.0 0.0 99 0.0 SSE 6 7 3 4 - - 0.0
30/05:00am 1.1 -1.9 1.0 99 0.0 S 6 6 3 3 - - 0.0
30/04:30am 1.5 -1.4 1.4 99 0.0 SSW 6 7 3 4 - - 0.0
30/04:00am 1.3 -1.8 1.2 99 0.0 SSW 7 7 4 4 - - 0.0
30/03:30am 2.0 -1.0 1.9 99 0.0 S 7 9 4 5 - - 0.0
30/03:00am 2.6 0.3 2.5 99 0.0 S 4 6 2 3 - - 0.0
30/02:30am 3.5 1.3 3.4 99 0.0 S 4 4 2 2 - - 0.0
30/02:00am 3.8 1.3 3.7 99 0.0 S 6 7 3 4 - - 0.0
30/01:30am 3.3 0.7 3.2 99 0.0 S 6 7 3 4 - - 0.0
30/01:00am 3.3 0.7 3.2 99 0.0 S 6 7 3 4 - - 0.0
30/12:30am 3.1 0.8 3.0 99 0.0 ESE 4 6 2 3 - - 0.0
30/12:00am 3.2 1.0 3.1 99 0.0 ESE 4 7 2 4 - - 0.0
 
Date/Time
EST
Temp
°C
App
Temp
°C
Dew
Point
°C
Rel
Hum
%
Delta-T
°C
Wind Press
QNH
hPa
Press
MSL
hPa
Rain since
9am
mm
Dir  Spd
km/h
Gust
km/h
Spd
kts
Gust
kts
29/11:30pm 3.7 1.5 3.6 99 0.0 ESE 4 6 2 3 - - 0.0
29/11:00pm 4.1 2.4 4.0 99 0.0 ESE 2 4 1 2 - - 0.0
29/10:30pm 4.1 2.0 3.8 98 0.1 ESE 4 6 2 3 - - 0.0
29/10:00pm 4.4 2.3 4.1 98 0.1 ESE 4 6 2 3 - - 0.0
29/09:30pm 4.5 2.1 4.1 97 0.2 ESE 6 6 3 3 - - 0.0
29/09:00pm 4.8 2.8 4.2 96 0.3 ESE 4 6 2 3 - - 0.0
29/08:30pm 4.7 2.3 4.3 97 0.2 E 6 7 3 4 - - 0.0
29/08:00pm 5.0 3.8 4.4 96 0.3 CALM 0 0 0 0 - - 0.0
29/07:30pm 4.9 2.9 4.5 97 0.2 NNE 4 4 2 2 - - 0.0
29/07:00pm 5.5 4.3 4.6 94 0.4 CALM 0 0 0 0 - - 0.0
29/06:30pm 5.5 4.2 4.2 91 0.6 CALM 0 4 0 2 - - 0.0
29/06:00pm 6.3 4.3 4.6 89 0.7 NNE 4 6 2 3 - - 0.0
29/05:30pm 6.4 4.4 4.2 86 1.0 NE 4 6 2 3 - - 0.0
29/05:00pm 6.9 4.9 4.4 84 1.1 NNE 4 7 2 4 - - 0.0
29/04:30pm 7.5 5.5 4.3 80 1.4 N 4 9 2 5 - - 0.0
29/04:00pm 7.8 5.2 4.0 77 1.7 NNE 7 13 4 7 - - 0.0
29/03:30pm 8.0 5.3 3.8 75 1.8 NNE 7 11 4 6 - - 0.0
29/03:00pm 8.2 5.2 3.9 74 1.9 NNE 9 13 5 7 - - 0.0

Other formats

Comma delimited format used in spreadsheet applications
http://www.bom.gov.au/fwo/IDV60801/IDV60801.94859.axf

JavaScript Object Notation format (JSON) in row-major order
http://www.bom.gov.au/fwo/IDV60801/IDV60801.94859.json

Data quality

Most of these data are generated automatically and are frequently updated. Quality checks on data are not normally performed. It is possible for incorrect values to appear. Refer to information at About Latest Weather Observations and please check the disclaimer before using these data.